Monticello, Kentucky
Current Conditions -  °F | °C
As of 4:56 AM on Friday 24 Oct 2014 (Local Time) from KEKQ Reporting Station
Haze Haze  
Wind Chill: 43°   Ceiling: Unl
Heat Index: 43°   Visibility: 5mi
Dew Point: 43°   Wind: 3mph
Humidity: 100%   Direction: 10°N
Pressure: 30.13"   Gusts: NA
Location:  36.83°N, 84.85°W
Report Text: KEKQ 240856Z AUTO 01003KT 5SM BR CLR 06/06 A3013 RMK AO2 55000 T00610061 SLP208
Loading
Personal Weather Stations






























Interactive Weather Map New forecast layout! Learn more

10-Day Weather Forecast

Advertisements
Track Severe Weather on mobile